createdAt,value
2017-05-09T00:00:59.838Z,44.23
2017-05-09T00:03:27.766Z,44.63
2017-05-09T00:06:05.917Z,39.62
2017-05-09T00:08:33.072Z,35.78
2017-05-09T00:11:01.245Z,39.35
2017-05-09T00:13:28.839Z,39.57
2017-05-09T00:15:56.725Z,41.18
2017-05-09T00:18:23.862Z,40.32
2017-05-09T00:20:52.086Z,46.35
2017-05-09T00:23:19.246Z,41.73
2017-05-09T00:25:46.394Z,42.52
2017-05-09T00:28:14.552Z,40.28
2017-05-09T00:30:41.694Z,47.72
2017-05-09T00:33:08.841Z,39.02
2017-05-09T00:35:37.133Z,43.97
2017-05-09T00:38:04.330Z,44.10
2017-05-09T00:40:32.205Z,39.68
2017-05-09T00:43:00.425Z,44.53
2017-05-09T00:45:28.569Z,40.85
2017-05-09T00:47:55.700Z,41.80
2017-05-09T00:50:23.147Z,42.68
2017-05-09T00:52:51.013Z,38.83
2017-05-09T00:55:22.093Z,39.28
2017-05-09T00:57:51.154Z,43.12
2017-05-09T01:00:19.049Z,39.13
2017-05-09T01:02:46.211Z,37.88
2017-05-09T01:05:13.676Z,40.80
2017-05-09T01:07:40.806Z,43.00
2017-05-09T01:10:07.950Z,36.93
2017-05-09T01:12:35.430Z,36.02
2017-05-09T01:15:02.560Z,42.12
2017-05-09T01:17:29.697Z,48.72
2017-05-09T01:19:57.918Z,35.33
2017-05-09T01:22:25.112Z,40.17
2017-05-09T01:24:52.262Z,42.78
2017-05-09T01:27:19.761Z,44.13
2017-05-09T01:29:46.917Z,42.78
2017-05-09T01:32:14.137Z,42.27
2017-05-09T01:34:41.610Z,42.93
2017-05-09T01:37:08.878Z,37.33
2017-05-09T01:39:36.094Z,41.62
2017-05-09T01:42:03.585Z,45.23
2017-05-09T01:44:30.749Z,43.02
2017-05-09T01:46:58.633Z,38.38
2017-05-09T01:49:26.870Z,37.90
2017-05-09T01:51:53.997Z,41.72
2017-05-09T01:54:21.129Z,40.22
2017-05-09T01:56:48.631Z,35.53
2017-05-09T01:59:15.802Z,42.30
2017-05-09T02:01:42.944Z,39.57
2017-05-09T02:04:11.317Z,34.05
2017-05-09T02:06:38.450Z,39.82
2017-05-09T02:09:05.602Z,44.63
2017-05-09T02:11:33.062Z,36.57
2017-05-09T02:14:00.214Z,46.48
2017-05-09T02:16:27.392Z,42.70
2017-05-09T02:18:54.906Z,40.47
2017-05-09T02:21:22.046Z,47.10
2017-05-09T02:23:49.187Z,44.50
2017-05-09T02:26:16.665Z,41.38
2017-05-09T02:28:43.825Z,41.70
2017-05-09T02:31:10.999Z,41.50
2017-05-09T02:33:39.245Z,38.42
2017-05-09T02:36:06.559Z,39.95
2017-05-09T02:38:35.527Z,41.32
2017-05-09T02:41:03.058Z,44.38
2017-05-09T02:43:30.208Z,44.93
2017-05-09T02:45:57.348Z,48.08
2017-05-09T02:48:25.525Z,47.12
2017-05-09T02:50:52.677Z,43.12
2017-05-09T02:53:20.593Z,52.12
2017-05-09T02:55:49.116Z,43.00
2017-05-09T02:58:16.254Z,46.83
2017-05-09T03:00:44.425Z,46.67
2017-05-09T03:03:12.597Z,47.77
2017-05-09T03:05:39.741Z,52.13
2017-05-09T03:08:06.886Z,46.67
2017-05-09T03:10:34.367Z,40.97
2017-05-09T03:13:01.502Z,43.95
2017-05-09T03:15:28.669Z,44.37
2017-05-09T03:17:56.334Z,44.33
2017-05-09T03:20:23.479Z,42.73
2017-05-09T03:22:50.602Z,41.27
2017-05-09T03:25:18.190Z,41.73
2017-05-09T03:27:46.341Z,42.85
2017-05-09T03:30:13.482Z,41.45
2017-05-09T03:32:41.644Z,34.87
2017-05-09T03:35:08.806Z,38.72
2017-05-09T03:37:35.941Z,36.52
2017-05-09T03:40:03.439Z,34.37
2017-05-09T03:42:30.594Z,31.27
2017-05-09T03:44:59.510Z,39.07
2017-05-09T03:47:28.446Z,35.65
2017-05-09T03:49:55.585Z,40.75
2017-05-09T03:52:22.722Z,38.45
2017-05-09T03:54:50.217Z,40.58
2017-05-09T03:57:17.386Z,33.85
2017-05-09T03:59:46.577Z,39.45
2017-05-09T04:02:14.021Z,31.87
2017-05-09T04:04:41.180Z,37.03
2017-05-09T04:07:11.375Z,30.75
2017-05-09T04:09:39.165Z,36.12
2017-05-09T04:12:06.305Z,39.08
2017-05-09T04:14:34.497Z,36.53
2017-05-09T04:17:02.037Z,32.68
2017-05-09T04:19:29.182Z,39.08
2017-05-09T04:21:57.449Z,36.32
2017-05-09T04:24:25.648Z,33.88
2017-05-09T04:26:52.789Z,36.62
2017-05-09T04:29:19.921Z,40.65
2017-05-09T04:31:47.387Z,40.55
2017-05-09T04:34:14.518Z,31.28
2017-05-09T04:36:41.653Z,30.73
2017-05-09T04:39:09.155Z,29.58
2017-05-09T04:41:35.557Z,31.90
2017-05-09T04:44:02.692Z,39.63
2017-05-09T04:46:31.142Z,29.02
2017-05-09T04:48:58.335Z,32.23
2017-05-09T04:51:25.464Z,29.07
2017-05-09T04:53:53.751Z,34.98
2017-05-09T04:56:20.886Z,29.83
2017-05-09T04:58:50.473Z,30.77
2017-05-09T05:01:19.498Z,40.00
2017-05-09T05:03:46.637Z,36.45
2017-05-09T05:06:13.765Z,32.67
2017-05-09T05:08:42.004Z,24.85
2017-05-09T05:11:09.141Z,30.33
2017-05-09T05:13:36.281Z,26.77
2017-05-09T05:16:04.601Z,28.55
2017-05-09T05:18:31.770Z,31.53
2017-05-09T05:20:58.937Z,29.78
2017-05-09T05:23:26.433Z,28.20
2017-05-09T05:25:53.597Z,27.12
2017-05-09T05:28:20.742Z,26.80
2017-05-09T05:30:49.210Z,30.63
2017-05-09T05:33:17.348Z,24.17
2017-05-09T05:35:44.504Z,28.68
2017-05-09T05:38:13.311Z,24.98
2017-05-09T05:40:40.521Z,19.57
2017-05-09T05:43:07.702Z,20.50
2017-05-09T05:45:35.176Z,21.53
2017-05-09T05:48:02.314Z,19.53
2017-05-09T05:50:29.465Z,22.03
2017-05-09T05:52:56.945Z,21.35
2017-05-09T05:55:24.076Z,20.05
2017-05-09T05:57:51.219Z,20.48
2017-05-09T06:00:18.689Z,14.52
2017-05-09T06:02:45.838Z,17.68
2017-05-09T06:05:12.978Z,16.12
2017-05-09T06:07:40.449Z,16.15
2017-05-09T06:10:07.602Z,14.92
2017-05-09T06:12:34.743Z,18.02
2017-05-09T06:15:03.051Z,12.65
2017-05-09T06:17:30.950Z,14.13
2017-05-09T06:19:58.090Z,13.90
2017-05-09T06:22:25.589Z,14.42
2017-05-09T06:24:52.725Z,15.48
2017-05-09T06:27:19.857Z,15.27
2017-05-09T06:29:48.049Z,17.90
2017-05-09T06:32:15.213Z,13.40
2017-05-09T06:34:43.361Z,14.68
2017-05-09T06:37:10.842Z,13.77
2017-05-09T06:39:37.978Z,15.26
2017-05-09T06:42:05.119Z,13.42
2017-05-09T06:44:32.534Z,13.87
2017-05-09T06:47:00.410Z,10.05
2017-05-09T06:49:27.599Z,11.55
2017-05-09T06:51:55.070Z,15.86
2017-05-09T06:54:22.218Z,13.60
2017-05-09T06:56:49.368Z,13.40
2017-05-09T06:59:17.853Z,11.58
2017-05-09T07:01:44.977Z,11.98
2017-05-09T07:04:12.139Z,12.58
2017-05-09T07:06:39.593Z,13.56
2017-05-09T07:09:09.130Z,10.64
2017-05-09T07:11:37.025Z,13.60
2017-05-09T07:14:05.989Z,14.10
2017-05-09T07:16:33.122Z,12.94
2017-05-09T07:19:00.250Z,11.88
2017-05-09T07:21:27.722Z,16.98
2017-05-09T07:23:54.854Z,13.43
2017-05-09T07:26:21.989Z,13.54
2017-05-09T07:28:50.499Z,8.82
2017-05-09T07:31:17.629Z,8.20
2017-05-09T07:33:44.764Z,3.72
2017-05-09T07:36:12.253Z,7.27
2017-05-09T07:38:39.386Z,8.95
2017-05-09T07:41:06.521Z,4.76
2017-05-09T07:43:34.005Z,6.56
2017-05-09T07:46:01.135Z,5.86
2017-05-09T07:48:28.274Z,2.98
2017-05-09T07:50:56.658Z,3.68
2017-05-09T07:53:23.781Z,3.94
2017-05-09T07:55:51.670Z,8.66
2017-05-09T07:58:19.977Z,4.30
2017-05-09T08:00:47.106Z,4.28
2017-05-09T08:03:14.261Z,3.68
2017-05-09T08:05:41.735Z,4.74
2017-05-09T08:08:08.870Z,4.18
2017-05-09T08:10:36.017Z,5.78
2017-05-09T08:13:03.486Z,5.22
2017-05-09T08:15:30.645Z,6.10
2017-05-09T08:17:57.770Z,5.18
2017-05-09T08:20:26.065Z,4.97
2017-05-09T08:22:53.193Z,5.58
2017-05-09T08:25:21.377Z,5.42
2017-05-09T08:27:48.837Z,4.74
2017-05-09T08:30:15.977Z,4.38
2017-05-09T08:32:43.116Z,6.60
2017-05-09T08:35:11.362Z,4.16
2017-05-09T08:37:39.229Z,4.92
2017-05-09T08:40:07.925Z,5.08
2017-05-09T08:42:36.137Z,5.80
2017-05-09T08:45:03.266Z,5.78
2017-05-09T08:47:30.401Z,6.08
2017-05-09T08:49:57.889Z,5.12
2017-05-09T08:52:25.037Z,5.36
2017-05-09T08:54:52.170Z,5.70
2017-05-09T08:57:19.641Z,5.60
2017-05-09T08:59:46.773Z,6.28
2017-05-09T09:02:13.927Z,6.20
2017-05-09T09:04:41.401Z,5.90
2017-05-09T09:07:08.530Z,5.70
2017-05-09T09:09:35.665Z,5.36
2017-05-09T09:12:03.159Z,6.38
2017-05-09T09:14:30.272Z,6.10
2017-05-09T09:16:57.394Z,6.20
2017-05-09T09:19:26.513Z,6.48
2017-05-09T09:21:53.645Z,5.14
2017-05-09T09:24:21.516Z,5.40
2017-05-09T09:26:50.064Z,5.28
2017-05-09T09:29:17.190Z,5.10
2017-05-09T09:31:44.350Z,5.98
2017-05-09T09:34:11.831Z,6.02
2017-05-09T09:36:40.005Z,5.76
2017-05-09T09:39:07.144Z,5.46
2017-05-09T09:41:34.579Z,4.50
2017-05-09T09:44:01.715Z,5.46
2017-05-09T09:46:28.835Z,4.66
2017-05-09T09:48:57.074Z,4.20
2017-05-09T09:51:24.217Z,4.24
2017-05-09T09:53:52.392Z,3.88
2017-05-09T09:56:19.828Z,4.08
2017-05-09T09:58:47.970Z,3.86
2017-05-09T10:01:15.098Z,4.94
2017-05-09T10:03:43.321Z,4.32
2017-05-09T10:06:10.463Z,4.66
2017-05-09T10:08:37.881Z,4.00
2017-05-09T10:11:05.497Z,3.98
2017-05-09T10:13:32.698Z,3.26
2017-05-09T10:15:59.821Z,3.86
2017-05-09T10:18:28.374Z,3.78
2017-05-09T10:20:55.509Z,4.08
2017-05-09T10:23:22.653Z,3.42
2017-05-09T10:25:50.125Z,3.58
2017-05-09T10:28:17.245Z,2.88
2017-05-09T10:30:44.394Z,3.92
2017-05-09T10:33:12.630Z,3.34
2017-05-09T10:35:40.506Z,3.54
2017-05-09T10:38:08.381Z,3.16
2017-05-09T10:40:36.577Z,3.34
2017-05-09T10:43:03.697Z,3.18
2017-05-09T10:45:31.569Z,4.66
2017-05-09T10:47:59.104Z,4.08
2017-05-09T10:50:26.997Z,3.90
2017-05-09T10:52:54.138Z,4.68
2017-05-09T10:55:23.153Z,3.86
2017-05-09T10:57:50.318Z,3.78
2017-05-09T11:00:17.486Z,4.30
2017-05-09T11:02:46.070Z,4.84
2017-05-09T11:05:13.193Z,3.60
2017-05-09T11:07:40.326Z,3.84
2017-05-09T11:10:07.830Z,3.24
2017-05-09T11:12:34.959Z,3.06
2017-05-09T11:15:02.101Z,2.92
2017-05-09T11:17:29.582Z,3.10
2017-05-09T11:19:56.705Z,3.64
2017-05-09T11:22:23.846Z,3.70
2017-05-09T11:24:51.333Z,3.64
2017-05-09T11:27:18.467Z,3.00
2017-05-09T11:29:45.583Z,3.18
2017-05-09T11:32:13.925Z,3.42
2017-05-09T11:34:41.061Z,3.04
2017-05-09T11:37:08.190Z,3.70
2017-05-09T11:39:35.662Z,3.24
2017-05-09T11:42:02.825Z,3.58
2017-05-09T11:44:31.738Z,3.14
2017-05-09T11:46:59.158Z,3.26
2017-05-09T11:49:26.306Z,3.12
2017-05-09T11:51:53.454Z,2.70
2017-05-09T11:54:21.861Z,2.82
2017-05-09T11:56:48.985Z,3.10
2017-05-09T11:59:16.118Z,3.02
2017-05-09T12:01:43.593Z,3.40
2017-05-09T12:04:10.725Z,3.48
2017-05-09T12:06:37.845Z,2.16
2017-05-09T12:09:05.341Z,2.78
2017-05-09T12:11:32.502Z,2.32
2017-05-09T12:13:59.637Z,2.94
2017-05-09T12:16:27.838Z,4.80
2017-05-09T12:18:54.978Z,2.82
2017-05-09T12:21:22.114Z,3.04
2017-05-09T12:23:49.574Z,2.78
2017-05-09T12:26:16.766Z,3.66
2017-05-09T12:28:44.897Z,2.64
2017-05-09T12:31:12.370Z,2.94
2017-05-09T12:33:39.497Z,2.86
2017-05-09T12:36:06.645Z,2.98
2017-05-09T12:38:34.893Z,3.22
2017-05-09T12:41:02.059Z,2.46
2017-05-09T12:43:29.185Z,2.18
2017-05-09T12:45:56.668Z,2.80
2017-05-09T12:48:23.798Z,2.80
2017-05-09T12:50:50.941Z,2.28
2017-05-09T12:53:19.461Z,3.06
2017-05-09T12:55:46.581Z,3.68
2017-05-09T12:58:14.769Z,3.26
2017-05-09T13:00:42.233Z,3.02
2017-05-09T13:03:09.374Z,2.76
2017-05-09T13:05:36.506Z,2.38
2017-05-09T13:08:03.990Z,2.30
2017-05-09T13:10:31.126Z,1.66
2017-05-09T13:12:58.335Z,2.10
2017-05-09T13:15:27.405Z,2.14
2017-05-09T13:17:54.693Z,2.36
2017-05-09T13:20:22.357Z,2.16
2017-05-09T13:22:49.853Z,2.30
2017-05-09T13:25:16.993Z,2.22
2017-05-09T13:27:44.126Z,2.72
2017-05-09T13:30:12.445Z,2.00
2017-05-09T13:32:39.565Z,3.50
2017-05-09T13:35:06.693Z,2.46
2017-05-09T13:37:34.192Z,2.34
2017-05-09T13:40:01.313Z,3.08
2017-05-09T13:42:28.448Z,2.06
2017-05-09T13:44:56.973Z,1.94
2017-05-09T13:47:24.098Z,3.56
2017-05-09T13:49:51.230Z,3.18
2017-05-09T13:52:18.720Z,1.76
2017-05-09T13:54:45.854Z,2.26
2017-05-09T13:57:12.977Z,14.96
2017-05-09T13:59:40.581Z,1.70
2017-05-09T14:02:08.717Z,1.36
2017-05-09T14:04:35.854Z,2.66
2017-05-09T14:07:04.070Z,1.84
2017-05-09T14:09:31.209Z,1.32
2017-05-09T14:11:58.345Z,1.24
2017-05-09T14:14:25.814Z,1.98
2017-05-09T14:16:52.989Z,2.50
2017-05-09T14:19:20.160Z,1.72
2017-05-09T14:21:47.681Z,1.54
2017-05-09T14:24:14.811Z,1.32
2017-05-09T14:26:41.978Z,1.00
2017-05-09T14:29:09.446Z,1.30
2017-05-09T14:31:37.382Z,1.56
2017-05-09T14:34:04.513Z,1.50
2017-05-09T14:36:32.018Z,1.44
2017-05-09T14:38:59.171Z,1.40
2017-05-09T14:41:26.293Z,1.92
2017-05-09T14:43:54.790Z,2.38
2017-05-09T14:46:21.913Z,3.04
2017-05-09T14:48:49.047Z,1.84
2017-05-09T14:51:18.070Z,2.28
2017-05-09T14:53:45.187Z,2.00
2017-05-09T14:56:12.309Z,2.24
2017-05-09T14:58:39.729Z,2.40
2017-05-09T15:01:06.869Z,2.06
2017-05-09T15:03:35.025Z,1.90
2017-05-09T15:06:03.471Z,2.28
2017-05-09T15:08:30.601Z,2.38
2017-05-09T15:10:57.733Z,1.98
2017-05-09T15:13:25.922Z,2.50
2017-05-09T15:15:53.092Z,2.82
2017-05-09T15:18:20.212Z,3.90
2017-05-09T15:23:20.234Z,2.58
2017-05-09T15:25:47.361Z,2.22
2017-05-09T15:28:15.535Z,3.98
2017-05-09T15:30:43.038Z,2.44
2017-05-09T15:33:10.187Z,2.34
2017-05-09T15:35:37.322Z,3.40
2017-05-09T15:38:04.769Z,2.78
2017-05-09T15:40:31.906Z,2.90
2017-05-09T15:42:59.039Z,2.30
2017-05-09T15:45:26.465Z,2.70
2017-05-09T15:47:54.335Z,2.38
2017-05-09T15:50:22.209Z,2.08
2017-05-09T15:52:50.353Z,2.74
2017-05-09T15:55:17.497Z,2.78
2017-05-09T16:00:16.802Z,2.72
2017-05-09T16:02:43.925Z,2.32
2017-05-09T16:05:11.049Z,2.26
2017-05-09T16:07:39.594Z,2.46
2017-05-09T16:10:06.738Z,2.30
2017-05-09T16:12:33.859Z,2.22
2017-05-09T16:15:01.321Z,2.88
2017-05-09T16:17:28.441Z,3.64
2017-05-09T16:19:55.582Z,2.40
2017-05-09T16:22:24.522Z,3.18
2017-05-09T16:24:51.662Z,2.88
2017-05-09T16:27:18.793Z,2.40
2017-05-09T16:29:46.274Z,2.70
2017-05-09T16:32:13.395Z,2.76
2017-05-09T16:34:40.525Z,2.08
2017-05-09T16:37:08.742Z,1.86
2017-05-09T16:39:36.894Z,2.48
2017-05-09T16:42:04.034Z,2.62
2017-05-09T16:44:32.398Z,2.68
2017-05-09T16:46:59.529Z,1.64
2017-05-09T16:49:27.401Z,2.02
2017-05-09T16:51:56.325Z,2.30
2017-05-09T16:54:23.464Z,4.48
2017-05-09T16:56:50.598Z,2.74
2017-05-09T16:59:18.819Z,2.74
2017-05-09T17:04:17.862Z,2.72
2017-05-09T17:06:46.132Z,4.60
2017-05-09T17:09:14.035Z,2.46
2017-05-09T17:11:41.179Z,2.72
2017-05-09T17:14:08.679Z,2.74
2017-05-09T17:16:35.850Z,2.06
2017-05-09T17:19:03.050Z,2.82
2017-05-09T17:21:30.189Z,3.14
2017-05-09T17:23:57.317Z,3.66
2017-05-09T17:26:25.550Z,5.30
2017-05-09T17:28:52.685Z,4.10
2017-05-09T17:31:19.808Z,4.22
2017-05-09T17:33:47.301Z,3.44
2017-05-09T17:36:14.431Z,4.38
2017-05-09T17:38:41.565Z,3.94
2017-05-09T17:41:08.965Z,3.96
2017-05-09T17:43:36.107Z,5.78
2017-05-09T17:46:03.238Z,3.86
2017-05-09T17:48:31.642Z,3.50
2017-05-09T17:50:58.777Z,3.36
2017-05-09T17:53:25.973Z,5.18
2017-05-09T17:55:54.209Z,3.56
2017-05-09T17:58:22.793Z,8.50
2017-05-09T18:00:49.950Z,15.82
2017-05-09T18:03:18.121Z,6.82
2017-05-09T18:05:45.569Z,6.26
2017-05-09T18:08:12.698Z,4.52
2017-05-09T18:10:39.842Z,4.44
2017-05-09T18:13:08.253Z,4.14
2017-05-09T18:15:36.073Z,4.50
2017-05-09T18:18:03.241Z,4.12
2017-05-09T18:20:31.697Z,7.18
2017-05-09T18:23:00.710Z,4.30
2017-05-09T18:25:27.858Z,4.08
2017-05-09T18:27:56.281Z,3.74
2017-05-09T18:30:24.509Z,4.26
2017-05-09T18:32:52.592Z,3.44
2017-05-09T18:35:22.338Z,4.44
2017-05-09T18:37:49.479Z,3.60
2017-05-09T18:40:16.645Z,2.86
2017-05-09T18:42:44.178Z,3.50
2017-05-09T18:45:11.355Z,6.58
2017-05-09T18:47:38.535Z,4.02
2017-05-09T18:50:06.037Z,5.08
2017-05-09T18:52:33.163Z,3.12
2017-05-09T18:55:00.290Z,2.86
2017-05-09T18:57:28.813Z,3.48
2017-05-09T18:59:56.044Z,3.74
2017-05-09T19:02:23.979Z,3.64
2017-05-09T19:04:51.389Z,2.56
2017-05-09T19:07:18.521Z,3.06
2017-05-09T19:09:45.659Z,6.94
2017-05-09T19:12:13.995Z,2.78
2017-05-09T19:14:42.346Z,2.75
2017-05-09T19:17:09.486Z,3.84
2017-05-09T19:19:37.773Z,3.34
2017-05-09T19:22:04.922Z,2.82
2017-05-09T19:24:32.830Z,3.25
2017-05-09T19:27:00.346Z,3.40
2017-05-09T19:29:27.790Z,2.48
2017-05-09T19:31:54.983Z,2.90
2017-05-09T19:34:23.216Z,3.90
2017-05-09T19:36:50.374Z,2.37
2017-05-09T19:39:17.544Z,2.88
2017-05-09T19:41:46.102Z,3.03
2017-05-09T19:44:13.250Z,3.85
2017-05-09T19:46:40.399Z,3.52
2017-05-09T19:49:07.862Z,3.47
2017-05-09T19:51:35.235Z,3.40
2017-05-09T19:54:03.141Z,3.45
2017-05-09T19:56:30.642Z,9.35
2017-05-09T19:58:59.051Z,8.17
2017-05-09T20:01:26.323Z,4.25
2017-05-09T20:03:53.825Z,4.40
2017-05-09T20:06:21.225Z,4.63
2017-05-09T20:08:49.273Z,4.22
2017-05-09T20:11:17.651Z,3.30
2017-05-09T20:13:44.834Z,2.95
2017-05-09T20:16:11.982Z,9.77
2017-05-09T20:18:40.227Z,15.87
2017-05-09T20:21:07.357Z,6.92
2017-05-09T20:23:34.501Z,6.10
2017-05-09T20:26:02.057Z,4.45
2017-05-09T20:28:29.691Z,7.40
2017-05-09T20:30:56.971Z,6.50
2017-05-09T20:33:24.453Z,7.50
2017-05-09T20:38:27.025Z,6.27
2017-05-09T20:40:54.165Z,20.53
2017-05-09T20:43:21.317Z,10.73
2017-05-09T20:45:48.774Z,6.52
2017-05-09T20:48:15.909Z,5.02
2017-05-09T20:50:43.049Z,11.48
2017-05-09T20:53:10.529Z,12.95
2017-05-09T20:55:37.669Z,9.55
2017-05-09T20:58:04.861Z,22.95
2017-05-09T21:00:33.857Z,4.45
2017-05-09T21:03:01.751Z,11.90
2017-05-09T21:05:28.902Z,7.12
2017-05-09T21:07:56.394Z,6.98
2017-05-09T21:10:23.523Z,5.48
2017-05-09T21:12:50.653Z,5.33
2017-05-09T21:15:18.065Z,5.87
2017-05-09T21:17:45.197Z,6.37
2017-05-09T21:20:12.362Z,5.18
2017-05-09T21:22:40.599Z,5.95
2017-05-09T21:25:07.737Z,5.15
2017-05-09T21:27:34.875Z,4.60
2017-05-09T21:30:03.222Z,5.30
2017-05-09T21:32:31.117Z,4.43
2017-05-09T21:34:58.325Z,4.77
2017-05-09T21:37:25.868Z,4.62
2017-05-09T21:39:53.002Z,5.18
2017-05-09T21:42:20.158Z,5.62
2017-05-09T21:44:47.625Z,5.48
2017-05-09T21:47:14.761Z,5.23
2017-05-09T21:49:41.893Z,5.60
2017-05-09T21:52:09.387Z,9.35
2017-05-09T21:54:36.529Z,6.00
2017-05-09T21:57:03.662Z,5.73
2017-05-09T21:59:31.143Z,6.20
2017-05-09T22:02:00.191Z,10.52
2017-05-09T22:04:27.496Z,6.02
2017-05-09T22:06:56.641Z,7.00
2017-05-09T22:09:23.818Z,6.75
2017-05-09T22:11:50.962Z,6.95
2017-05-09T22:14:18.441Z,7.82
2017-05-09T22:16:45.583Z,5.35
2017-05-09T22:19:12.750Z,6.08
2017-05-09T22:21:40.909Z,5.07
2017-05-09T22:24:08.057Z,6.65
2017-05-09T22:26:35.195Z,7.47
2017-05-09T22:29:02.662Z,5.50
2017-05-09T22:31:29.802Z,5.15
2017-05-09T22:33:56.987Z,5.95
2017-05-09T22:36:25.535Z,6.45
2017-05-09T22:38:52.693Z,7.90
2017-05-09T22:41:19.822Z,6.92
2017-05-09T22:43:47.310Z,5.93
2017-05-09T22:46:16.499Z,8.35
2017-05-09T22:48:43.641Z,7.17
2017-05-09T22:51:11.934Z,6.80
2017-05-09T22:53:39.107Z,7.70
2017-05-09T22:56:06.987Z,7.90
2017-05-09T22:58:34.492Z,8.48
2017-05-09T23:01:01.642Z,9.00
2017-05-09T23:03:28.773Z,11.00
2017-05-09T23:05:56.250Z,7.88
2017-05-09T23:08:23.394Z,12.10
2017-05-09T23:10:50.530Z,11.48
2017-05-09T23:13:18.002Z,7.68
2017-05-09T23:15:45.157Z,9.95
2017-05-09T23:18:12.291Z,9.07
2017-05-09T23:20:39.761Z,6.85
2017-05-09T23:23:06.929Z,10.85
2017-05-09T23:25:34.077Z,9.43
2017-05-09T23:28:01.513Z,8.00
2017-05-09T23:30:28.696Z,7.68
2017-05-09T23:32:56.685Z,13.28
2017-05-09T23:35:25.030Z,11.47
2017-05-09T23:37:52.174Z,10.30
2017-05-09T23:40:19.306Z,7.07
2017-05-09T23:42:46.763Z,8.63
2017-05-09T23:45:13.889Z,9.78
2017-05-09T23:47:42.043Z,11.08
2017-05-09T23:50:10.210Z,12.17
2017-05-09T23:52:38.098Z,7.95
2017-05-09T23:55:06.240Z,9.65
2017-05-09T23:57:35.262Z,9.40
